This is the latest recevied weather packets stored in our database for station/object DM0MR. If no packets are shown the sender has not sent any weather packets the latest 10 day(s).
| Time | Temp. | Humidity | Pressure | Rain* | Wind** | Luminosity | Snow |
|---|---|---|---|---|---|---|---|
| 1777633892 | 22.22° C | 35% | 1018.8 hPa | 0 mm | - | - | - |
| 1777632992 | 22.78° C | 37% | 1018.8 hPa | 0 mm | - | - | - |
| 1777632091 | 21.67° C | 35% | 1018.9 hPa | 0 mm | - | - | - |
| 1777631190 | 22.22° C | 35% | 1019.2 hPa | 0 mm | - | - | - |
| 1777630291 | 21.67° C | 36% | 1019.1 hPa | 0 mm | - | - | - |
| 1777629393 | 20.56° C | 38% | 1019.2 hPa | 0 mm | - | - | - |
| 1777628492 | 21.11° C | 36% | 1019.3 hPa | 0 mm | - | - | - |
| 1777627591 | 20.56° C | 37% | 1019.5 hPa | 0 mm | - | - | - |
| 1777625792 | 22.22° C | 37% | 1019.7 hPa | 0 mm | - | - | - |
| 1777623992 | 20.56° C | 42% | 1019.9 hPa | 0 mm | - | - | - |
| 1777623091 | 21.11° C | 42% | 1019.9 hPa | 0 mm | - | - | - |
| 1777622190 | 19.44° C | 45% | 1020 hPa | 0 mm | - | - | - |
| 1777621292 | 17.22° C | 44% | 1020 hPa | 0 mm | - | - | - |
| 1777620391 | 18.33° C | 45% | 1020.1 hPa | 0 mm | - | - | - |
| 1777619490 | 18.89° C | 45% | 1020.2 hPa | 0 mm | - | - | - |
| 1777618591 | 17.78° C | 47% | 1020 hPa | 0 mm | - | - | - |
| 1777617692 | 16.67° C | 50% | 1019.9 hPa | 0 mm | - | - | - |
| 1777616792 | 16.11° C | 53% | 1019.8 hPa | 0 mm | - | - | - |
| 1777615892 | 15° C | 59% | 1019.9 hPa | 0 mm | - | - | - |
| 1777614990 | 13.89° C | 65% | 1019.8 hPa | 0 mm | - | - | - |
| 1777614092 | 11.11° C | 76% | 1019.9 hPa | 0 mm | - | - | - |
| 1777613193 | 7.22° C | 86% | 1019.9 hPa | 0 mm | - | - | - |
| 1777612290 | 5° C | 89% | 1019.6 hPa | 0 mm | - | - | - |
| 1777611391 | 4.44° C | 89% | 1019.6 hPa | 0 mm | - | - | - |
| 1777609591 | 3.89° C | 90% | 1019.5 hPa | 0 mm | - | - | - |
* Rain latest hour (hover to see other rain measurements)
** Current wind speed in m/s (hover to see current wind gust speed)